Time,TemperatureF,DewpointF,PressureIn,WindDirection,WindDirectionDegrees,WindSpeedMPH,WindSpeedGustMPH,Humidity,HourlyPrecipIn,Conditions,Clouds,dailyrainin,SoftwareType,DateUTC
2013-01-29 00:00:00,20.8,14.8,30.03,NNW,338,0.0,0.0,77,0.00,,OVC,0.00,VWS V14.01,2013-01-29 05:00:00,
2013-01-29 00:01:00,20.8,14.8,30.03,NNW,338,0.0,0.0,77,0.00,,OVC,0.00,VWS V14.01,2013-01-29 05:01:00,
2013-01-29 00:03:00,20.8,14.8,30.03,NNW,338,0.0,0.0,77,0.00,,OVC,0.00,VWS V14.01,2013-01-29 05:03:00,
2013-01-29 00:08:00,20.7,14.6,30.03,NNW,338,0.0,0.0,77,0.00,,OVC,0.00,VWS V14.01,2013-01-29 05:08:00,
2013-01-29 00:13:00,20.7,14.3,30.03,NNW,338,0.0,0.0,76,0.00,,OVC,0.00,VWS V14.01,2013-01-29 05:13:00,
2013-01-29 00:18:00,20.7,14.3,30.03,NNW,338,0.0,0.0,76,0.00,,OVC,0.00,VWS V14.01,2013-01-29 05:18:00,
2013-01-29 00:23:00,20.8,14.8,30.03,NNW,338,0.0,0.0,77,0.00,,OVC,0.00,VWS V14.01,2013-01-29 05:23:00,
2013-01-29 00:28:00,20.7,14.9,30.03,NNW,338,0.0,0.0,78,0.00,,OVC,0.00,VWS V14.01,2013-01-29 05:28:00,
2013-01-29 00:30:00,20.7,14.9,30.03,NNW,338,0.0,0.0,78,0.00,,OVC,0.00,VWS V14.01,2013-01-29 05:30:00,
2013-01-29 00:33:00,20.7,14.9,30.03,NNW,338,0.0,0.0,78,0.00,,OVC,0.00,VWS V14.01,2013-01-29 05:33:00,
2013-01-29 00:38:00,20.7,14.6,30.03,NNW,338,0.0,0.0,77,0.00,,OVC,0.00,VWS V14.01,2013-01-29 05:38:00,
2013-01-29 00:43:00,20.5,14.4,30.03,NNW,338,0.0,0.0,77,0.00,,OVC,0.00,VWS V14.01,2013-01-29 05:43:00,
2013-01-29 00:48:00,20.5,14.1,30.03,NNW,338,0.0,0.0,76,0.00,,OVC,0.00,VWS V14.01,2013-01-29 05:48:00,
2013-01-29 00:53:00,20.3,13.7,30.03,NNW,338,0.0,0.0,75,0.00,,OVC,0.00,VWS V14.01,2013-01-29 05:53:00,
2013-01-29 00:58:00,20.3,13.7,30.03,NNW,338,0.0,0.0,75,0.00,,OVC,0.00,VWS V14.01,2013-01-29 05:58:00,
2013-01-29 01:00:00,20.3,13.7,30.03,NNW,338,0.0,0.0,75,0.00,,OVC,0.00,VWS V14.01,2013-01-29 06:00:00,
2013-01-29 01:03:00,20.1,13.2,30.03,NNW,338,0.0,0.0,74,0.00,,OVC,0.00,VWS V14.01,2013-01-29 06:03:00,
2013-01-29 01:08:00,19.9,13.3,30.03,NNW,338,0.0,0.0,75,0.00,,OVC,0.00,VWS V14.01,2013-01-29 06:08:00,
2013-01-29 01:13:00,19.9,13.3,30.03,NNW,338,0.0,0.0,75,0.00,,OVC,0.00,VWS V14.01,2013-01-29 06:13:00,
2013-01-29 01:18:00,19.8,13.1,30.03,NNW,338,0.0,0.0,75,0.00,,OVC,0.00,VWS V14.01,2013-01-29 06:18:00,
2013-01-29 01:24:00,19.6,13.0,30.03,NNW,338,0.0,0.0,75,0.00,,OVC,0.00,VWS V14.01,2013-01-29 06:24:00,
2013-01-29 01:29:00,19.4,12.8,30.03,NNW,338,0.0,0.0,75,0.00,,OVC,0.00,VWS V14.01,2013-01-29 06:29:00,
2013-01-29 01:30:00,19.4,12.8,30.03,NNW,338,0.0,0.0,75,0.00,,OVC,0.00,VWS V14.01,2013-01-29 06:30:00,
2013-01-29 01:34:00,19.4,12.8,30.03,NNW,338,0.0,0.0,75,0.00,,OVC,0.00,VWS V14.01,2013-01-29 06:34:00,
2013-01-29 01:39:00,19.2,12.6,30.03,NNW,338,0.0,0.0,75,0.00,,OVC,0.00,VWS V14.01,2013-01-29 06:39:00,
2013-01-29 01:44:00,19.0,12.4,30.03,NNW,338,0.0,0.0,75,0.00,,OVC,0.00,VWS V14.01,2013-01-29 06:44:00,
2013-01-29 01:49:00,18.7,12.1,30.03,NNW,338,0.0,0.0,75,0.00,,OVC,0.00,VWS V14.01,2013-01-29 06:49:00,
2013-01-29 01:54:00,18.5,11.9,30.06,NNW,338,0.0,0.0,75,0.00,,OVC,0.00,VWS V14.01,2013-01-29 06:54:00,
2013-01-29 01:59:00,18.3,11.4,30.06,NNW,338,0.0,0.0,74,0.00,,OVC,0.00,VWS V14.01,2013-01-29 06:59:00,
2013-01-29 02:00:00,18.3,11.4,30.06,NNW,338,0.0,0.0,74,0.00,,OVC,0.00,VWS V14.01,2013-01-29 07:00:00,
2013-01-29 02:04:00,18.1,11.3,30.06,NNW,338,0.0,0.0,74,0.00,,OVC,0.00,VWS V14.01,2013-01-29 07:04:00,
2013-01-29 02:09:00,18.0,11.1,30.06,NNW,338,0.0,0.0,74,0.00,,OVC,0.00,VWS V14.01,2013-01-29 07:09:00,
2013-01-29 02:14:00,18.0,11.1,30.06,NNW,338,0.0,0.0,74,0.00,,OVC,0.00,VWS V14.01,2013-01-29 07:14:00,
2013-01-29 02:19:00,18.1,11.3,30.06,NNW,338,0.0,0.0,74,0.00,,OVC,0.00,VWS V14.01,2013-01-29 07:19:00,
2013-01-29 02:24:00,18.1,11.3,30.06,NNW,338,0.0,0.0,74,0.00,,OVC,0.00,VWS V14.01,2013-01-29 07:24:00,
2013-01-29 02:29:00,18.1,11.3,30.06,NNW,338,0.0,0.0,74,0.00,,OVC,0.00,VWS V14.01,2013-01-29 07:29:00,
2013-01-29 02:30:00,18.0,11.1,30.06,NNW,338,0.0,0.0,74,0.00,,OVC,0.00,VWS V14.01,2013-01-29 07:30:00,
2013-01-29 02:34:00,17.8,10.9,30.06,NNW,338,0.0,0.0,74,0.00,,OVC,0.00,VWS V14.01,2013-01-29 07:34:00,
2013-01-29 02:39:00,17.6,10.7,30.03,NNW,338,0.0,0.0,74,0.00,,OVC,0.00,VWS V14.01,2013-01-29 07:39:00,
2013-01-29 02:44:00,17.6,10.7,30.03,NNW,338,0.0,0.0,74,0.00,,OVC,0.00,VWS V14.01,2013-01-29 07:44:00,
2013-01-29 02:49:00,17.4,10.6,30.03,NNW,338,0.0,0.0,74,0.00,,OVC,0.00,VWS V14.01,2013-01-29 07:49:00,
2013-01-29 02:54:00,17.1,10.2,30.03,NNW,338,0.0,0.0,74,0.00,,OVC,0.00,VWS V14.01,2013-01-29 07:54:00,
2013-01-29 02:59:00,16.7,9.9,30.03,NNW,338,0.0,0.0,74,0.00,,OVC,0.00,VWS V14.01,2013-01-29 07:59:00,
2013-01-29 03:00:00,16.7,9.9,30.03,NNW,338,0.0,0.0,74,0.00,,OVC,0.00,VWS V14.01,2013-01-29 08:00:00,
2013-01-29 03:04:00,16.5,9.4,30.03,NNW,338,0.0,0.0,73,0.00,,OVC,0.00,VWS V14.01,2013-01-29 08:04:00,
2013-01-29 03:09:00,16.2,8.7,30.03,NNW,338,0.0,0.0,72,0.00,,OVC,0.00,VWS V14.01,2013-01-29 08:09:00,
2013-01-29 03:14:00,16.2,8.7,30.03,NNW,338,0.0,0.0,72,0.00,,OVC,0.00,VWS V14.01,2013-01-29 08:14:00,
2013-01-29 03:19:00,15.8,8.7,30.03,NNW,338,0.0,0.0,73,0.00,,OVC,0.00,VWS V14.01,2013-01-29 08:19:00,
2013-01-29 03:24:00,15.6,8.5,30.03,NNW,338,0.0,0.0,73,0.00,,OVC,0.00,VWS V14.01,2013-01-29 08:24:00,
2013-01-29 03:29:00,15.4,8.4,30.03,NNW,338,0.0,0.0,73,0.00,,OVC,0.00,VWS V14.01,2013-01-29 08:29:00,
2013-01-29 03:30:00,15.4,8.6,30.03,NNW,338,0.0,0.0,74,0.00,,OVC,0.00,VWS V14.01,2013-01-29 08:30:00,
2013-01-29 03:34:00,15.4,8.6,30.03,NNW,338,0.0,0.0,74,0.00,,OVC,0.00,VWS V14.01,2013-01-29 08:34:00,
2013-01-29 03:39:00,15.6,8.5,30.06,NNW,338,0.0,0.0,73,0.00,,OVC,0.00,VWS V14.01,2013-01-29 08:39:00,
2013-01-29 03:44:00,15.8,9.3,30.06,NNW,338,0.0,0.0,75,0.00,,OVC,0.00,VWS V14.01,2013-01-29 08:44:00,
2013-01-29 03:49:00,16.0,10.1,30.06,NNW,338,0.0,0.0,77,0.00,,OVC,0.00,VWS V14.01,2013-01-29 08:49:00,
2013-01-29 03:54:00,16.2,10.5,30.06,NNW,338,0.0,0.0,78,0.00,,OVC,0.00,VWS V14.01,2013-01-29 08:54:00,
2013-01-29 03:59:00,16.5,11.2,30.06,NNW,338,0.0,0.0,79,0.00,,OVC,0.00,VWS V14.01,2013-01-29 08:59:00,
2013-01-29 04:00:00,16.5,11.2,30.06,NNW,338,0.0,0.0,79,0.00,,OVC,0.00,VWS V14.01,2013-01-29 09:00:00,
2013-01-29 04:04:00,16.7,11.9,30.06,NNW,338,0.0,0.0,81,0.00,,OVC,0.00,VWS V14.01,2013-01-29 09:04:00,
2013-01-29 04:09:00,16.9,12.1,30.06,NNW,338,0.0,0.0,81,0.00,,OVC,0.00,VWS V14.01,2013-01-29 09:09:00,
2013-01-29 04:14:00,17.1,12.2,30.06,NNW,338,0.0,0.0,81,0.00,,OVC,0.00,VWS V14.01,2013-01-29 09:14:00,
2013-01-29 04:19:00,17.4,12.6,30.06,NNW,338,0.0,0.0,81,0.00,,OVC,0.00,VWS V14.01,2013-01-29 09:19:00,
2013-01-29 04:24:00,17.6,12.5,30.06,NNW,338,0.0,0.0,80,0.00,,OVC,0.00,VWS V14.01,2013-01-29 09:24:00,
2013-01-29 04:29:00,17.8,12.7,30.06,NNW,338,0.0,0.0,80,0.00,,OVC,0.00,VWS V14.01,2013-01-29 09:29:00,
2013-01-29 04:30:00,17.8,12.7,30.06,NNW,338,0.0,0.0,80,0.00,,OVC,0.00,VWS V14.01,2013-01-29 09:30:00,
2013-01-29 04:34:00,17.8,12.7,30.06,NNW,338,0.0,0.0,80,0.00,,OVC,0.00,VWS V14.01,2013-01-29 09:34:00,
2013-01-29 04:39:00,17.6,12.5,30.06,NNW,338,0.0,0.0,80,0.00,,OVC,0.00,VWS V14.01,2013-01-29 09:39:00,
2013-01-29 04:44:00,17.4,12.0,30.06,NNW,338,0.0,0.0,79,0.00,,OVC,0.00,VWS V14.01,2013-01-29 09:44:00,
2013-01-29 04:49:00,16.9,11.5,30.06,NNW,338,0.0,0.0,79,0.00,,OVC,0.00,VWS V14.01,2013-01-29 09:49:00,
2013-01-29 04:54:00,16.5,10.9,30.06,NNW,338,0.0,0.0,78,0.00,,OVC,0.00,VWS V14.01,2013-01-29 09:54:00,
2013-01-29 04:59:00,16.2,10.5,30.06,NNW,338,0.0,0.0,78,0.00,,OVC,0.00,VWS V14.01,2013-01-29 09:59:00,
2013-01-29 05:00:00,16.0,10.1,30.06,NNW,338,0.0,0.0,77,0.00,,OVC,0.00,VWS V14.01,2013-01-29 10:00:00,
2013-01-29 05:04:00,15.6,9.7,30.06,NNW,338,0.0,0.0,77,0.00,,OVC,0.00,VWS V14.01,2013-01-29 10:04:00,
2013-01-29 05:09:00,15.3,9.4,30.06,NNW,338,0.0,0.0,77,0.00,,OVC,0.00,VWS V14.01,2013-01-29 10:09:00,
2013-01-29 05:14:00,14.9,9.0,30.06,NNW,338,0.0,0.0,77,0.00,,OVC,0.00,VWS V14.01,2013-01-29 10:14:00,
2013-01-29 05:19:00,14.5,8.4,30.06,NNW,338,0.0,0.0,76,0.00,,OVC,0.00,VWS V14.01,2013-01-29 10:19:00,
2013-01-29 05:24:00,14.5,8.4,30.09,NNW,338,0.0,0.0,76,0.00,,OVC,0.00,VWS V14.01,2013-01-29 10:24:00,
2013-01-29 05:29:00,13.8,8.2,30.09,NNW,338,0.0,0.0,78,0.00,,OVC,0.00,VWS V14.01,2013-01-29 10:29:00,
2013-01-29 05:30:00,13.8,8.2,30.09,NNW,338,0.0,0.0,78,0.00,,OVC,0.00,VWS V14.01,2013-01-29 10:30:00,
2013-01-29 05:34:00,13.6,8.1,30.09,NNW,338,0.0,0.0,78,0.00,,OVC,0.00,VWS V14.01,2013-01-29 10:34:00,
2013-01-29 05:39:00,13.5,7.9,30.09,NNW,338,0.0,0.0,78,0.00,,OVC,0.00,VWS V14.01,2013-01-29 10:39:00,
2013-01-29 05:44:00,13.3,7.7,30.09,NNW,338,0.0,0.0,78,0.00,,OVC,0.00,VWS V14.01,2013-01-29 10:44:00,
2013-01-29 05:49:00,12.9,7.4,30.09,NW,315,3.1,3.1,78,0.00,,OVC,0.00,VWS V14.01,2013-01-29 10:49:00,
2013-01-29 05:54:00,12.7,7.2,30.09,NW,315,2.5,3.1,78,0.00,,OVC,0.00,VWS V14.01,2013-01-29 10:54:00,
2013-01-29 05:59:00,12.6,7.0,30.09,NW,315,2.7,3.6,78,0.00,,OVC,0.00,VWS V14.01,2013-01-29 10:59:00,
2013-01-29 06:00:00,12.4,6.8,30.09,NW,315,2.7,3.1,78,0.00,,OVC,0.00,VWS V14.01,2013-01-29 11:00:00,
2013-01-29 06:04:00,12.2,6.7,30.09,NW,315,2.9,2.9,78,0.00,,OVC,0.00,VWS V14.01,2013-01-29 11:04:00,
2013-01-29 06:09:00,12.2,6.7,30.09,NW,315,2.5,2.5,78,0.00,,OVC,0.00,VWS V14.01,2013-01-29 11:09:00,
2013-01-29 06:14:00,12.2,6.7,30.09,NW,315,2.5,2.5,78,0.00,,OVC,0.00,VWS V14.01,2013-01-29 11:14:00,
2013-01-29 06:19:00,12.0,6.5,30.09,NW,315,2.5,2.5,78,0.00,,OVC,0.00,VWS V14.01,2013-01-29 11:19:00,
2013-01-29 06:24:00,11.8,6.3,30.09,NW,315,2.5,2.5,78,0.00,,OVC,0.00,VWS V14.01,2013-01-29 11:24:00,
2013-01-29 06:29:00,11.8,6.3,30.09,NW,315,2.5,2.5,78,0.00,,OVC,0.00,VWS V14.01,2013-01-29 11:29:00,
2013-01-29 06:30:00,11.8,6.3,30.09,NW,315,2.5,2.5,78,0.00,,OVC,0.00,VWS V14.01,2013-01-29 11:30:00,
2013-01-29 06:34:00,11.7,6.1,30.09,NW,315,2.5,2.5,78,0.00,,OVC,0.00,VWS V14.01,2013-01-29 11:34:00,
2013-01-29 06:39:00,11.3,5.8,30.09,NW,315,2.5,2.5,78,0.00,,OVC,0.00,VWS V14.01,2013-01-29 11:39:00,
2013-01-29 06:44:00,11.1,5.6,30.09,NW,315,2.5,2.5,78,0.00,,OVC,0.00,VWS V14.01,2013-01-29 11:44:00,
2013-01-29 06:49:00,10.9,5.4,30.09,NW,315,2.5,2.5,78,0.00,,OVC,0.00,VWS V14.01,2013-01-29 11:49:00,
2013-01-29 06:54:00,10.9,5.4,30.09,NW,315,2.5,2.5,78,0.00,,OVC,0.00,VWS V14.01,2013-01-29 11:54:00,
2013-01-29 06:59:00,11.1,5.6,30.09,NW,315,2.5,2.5,78,0.00,,OVC,0.00,VWS V14.01,2013-01-29 11:59:00,
2013-01-29 07:00:00,11.1,5.6,30.09,NW,315,2.5,2.5,78,0.00,,OVC,0.00,VWS V14.01,2013-01-29 12:00:00,
2013-01-29 07:04:00,11.5,6.0,30.09,NW,315,2.5,2.5,78,0.00,,OVC,0.00,VWS V14.01,2013-01-29 12:04:00,
2013-01-29 07:09:00,11.3,5.8,30.12,NW,315,2.5,2.5,78,0.00,,OVC,0.00,VWS V14.01,2013-01-29 12:09:00,
2013-01-29 07:14:00,11.3,5.8,30.12,NW,315,2.5,2.5,78,0.00,,OVC,0.00,VWS V14.01,2013-01-29 12:14:00,
2013-01-29 07:19:00,11.1,5.6,30.12,NW,315,2.5,2.5,78,0.00,,OVC,0.00,VWS V14.01,2013-01-29 12:19:00,
2013-01-29 07:24:00,11.1,5.6,30.09,NW,315,2.5,2.5,78,0.00,,OVC,0.00,VWS V14.01,2013-01-29 12:24:00,
2013-01-29 07:29:00,11.1,5.6,30.09,NW,315,2.5,2.5,78,0.00,,OVC,0.00,VWS V14.01,2013-01-29 12:29:00,
2013-01-29 07:30:00,11.1,5.6,30.09,NW,315,2.5,2.5,78,0.00,,OVC,0.00,VWS V14.01,2013-01-29 12:30:00,
2013-01-29 07:34:00,11.1,5.6,30.09,NW,315,2.5,2.5,78,0.00,,OVC,0.00,VWS V14.01,2013-01-29 12:34:00,
2013-01-29 07:39:00,11.3,5.8,30.09,NW,315,2.5,2.5,78,0.00,,OVC,0.00,VWS V14.01,2013-01-29 12:39:00,
2013-01-29 07:44:00,11.7,6.1,30.09,NW,315,2.5,2.5,78,0.00,,OVC,0.00,VWS V14.01,2013-01-29 12:44:00,
2013-01-29 07:49:00,12.0,6.5,30.09,NW,315,2.5,2.5,78,0.00,,OVC,0.00,VWS V14.01,2013-01-29 12:49:00,
2013-01-29 07:54:00,12.7,7.2,30.09,NW,315,2.5,2.5,78,0.00,,OVC,0.00,VWS V14.01,2013-01-29 12:54:00,
2013-01-29 07:59:00,12.9,7.4,30.09,NW,315,2.5,2.5,78,0.00,,OVC,0.00,VWS V14.01,2013-01-29 12:59:00,
2013-01-29 08:00:00,12.9,7.4,30.09,NW,315,2.5,2.5,78,0.00,,OVC,0.00,VWS V14.01,2013-01-29 13:00:00,
2013-01-29 08:04:00,13.5,7.9,30.09,NW,315,2.5,2.5,78,0.00,,OVC,0.00,VWS V14.01,2013-01-29 13:04:00,
2013-01-29 08:09:00,13.6,8.1,30.12,NW,315,2.5,2.5,78,0.00,,OVC,0.00,VWS V14.01,2013-01-29 13:09:00,
2013-01-29 08:14:00,13.6,8.1,30.12,NW,315,2.5,2.5,78,0.00,,OVC,0.00,VWS V14.01,2013-01-29 13:14:00,
2013-01-29 08:19:00,13.6,8.1,30.12,NW,315,2.5,2.5,78,0.00,,OVC,0.00,VWS V14.01,2013-01-29 13:19:00,
2013-01-29 08:24:00,13.6,8.1,30.12,NW,315,2.5,2.5,78,0.00,,OVC,0.00,VWS V14.01,2013-01-29 13:24:00,
2013-01-29 08:29:00,13.6,8.1,30.12,NW,315,2.5,2.5,78,0.00,,OVC,0.00,VWS V14.01,2013-01-29 13:29:00,
2013-01-29 08:30:00,13.6,8.1,30.12,NW,315,2.5,2.5,78,0.00,,OVC,0.00,VWS V14.01,2013-01-29 13:30:00,
2013-01-29 08:34:00,16.0,11.2,30.12,NW,315,2.5,2.5,81,0.00,,OVC,0.00,VWS V14.01,2013-01-29 13:34:00,
2013-01-29 08:39:00,16.9,12.1,30.12,NW,315,2.5,2.5,81,0.00,,OVC,0.00,VWS V14.01,2013-01-29 13:39:00,
2013-01-29 08:44:00,17.4,12.6,30.12,NW,315,2.5,2.5,81,0.00,,OVC,0.00,VWS V14.01,2013-01-29 13:44:00,
2013-01-29 08:49:00,17.4,12.6,30.12,NW,315,2.5,2.5,81,0.00,,OVC,0.00,VWS V14.01,2013-01-29 13:49:00,
2013-01-29 08:54:00,18.9,13.7,30.12,NW,315,2.5,2.5,80,0.00,,OVC,0.00,VWS V14.01,2013-01-29 13:54:00,
2013-01-29 08:59:00,19.0,13.9,30.12,NW,315,2.5,2.5,80,0.00,,OVC,0.00,VWS V14.01,2013-01-29 13:59:00,
2013-01-29 09:00:00,19.0,13.9,30.12,NW,315,2.5,2.5,80,0.00,,OVC,0.00,VWS V14.01,2013-01-29 14:00:00,
2013-01-29 09:04:00,19.9,14.8,30.12,NW,315,2.5,2.5,80,0.00,,OVC,0.00,VWS V14.01,2013-01-29 14:04:00,
2013-01-29 09:09:00,21.9,16.4,30.12,NNW,338,1.6,1.6,79,0.00,,OVC,0.00,VWS V14.01,2013-01-29 14:09:00,
2013-01-29 09:14:00,21.9,16.4,30.12,NNW,338,1.6,1.6,79,0.00,,OVC,0.00,VWS V14.01,2013-01-29 14:14:00,
2013-01-29 09:19:00,24.4,17.0,30.12,NNW,338,1.6,1.6,73,0.00,,OVC,0.00,VWS V14.01,2013-01-29 14:19:00,
2013-01-29 09:24:00,25.3,16.9,30.15,NNW,338,1.6,1.6,70,0.00,,OVC,0.00,VWS V14.01,2013-01-29 14:24:00,
2013-01-29 09:29:00,28.6,19.7,30.15,NNW,338,1.6,1.6,69,0.00,,OVC,0.00,VWS V14.01,2013-01-29 14:29:00,
2013-01-29 09:30:00,28.6,19.7,30.15,NNW,338,1.6,1.6,69,0.00,,OVC,0.00,VWS V14.01,2013-01-29 14:30:00,
2013-01-29 09:35:00,28.6,19.7,30.15,NNW,338,1.6,1.6,69,0.00,,OVC,0.00,VWS V14.01,2013-01-29 14:35:00,
2013-01-29 09:40:00,31.5,20.7,30.15,NNW,338,1.6,1.6,64,0.00,,OVC,0.00,VWS V14.01,2013-01-29 14:40:00,
2013-01-29 09:45:00,33.6,20.8,30.15,NNW,338,1.6,1.6,59,0.00,,OVC,0.00,VWS V14.01,2013-01-29 14:45:00,
2013-01-29 09:50:00,35.2,17.5,30.15,NNW,338,1.6,1.6,48,0.00,,OVC,0.00,VWS V14.01,2013-01-29 14:50:00,
2013-01-29 09:55:00,35.4,13.5,30.15,WNW,292,3.8,4.3,40,0.00,,OVC,0.00,VWS V14.01,2013-01-29 14:55:00,
2013-01-29 10:00:00,34.9,13.6,30.15,WNW,292,3.8,3.8,41,0.00,,OVC,0.00,VWS V14.01,2013-01-29 15:00:00,
2013-01-29 10:05:00,35.1,13.8,30.15,NW,315,2.9,2.9,41,0.00,,OVC,0.00,VWS V14.01,2013-01-29 15:05:00,
2013-01-29 10:10:00,34.9,13.0,30.15,NW,315,2.9,2.9,40,0.00,,OVC,0.00,VWS V14.01,2013-01-29 15:10:00,
2013-01-29 10:15:00,34.3,13.1,30.15,NW,315,2.9,2.9,41,0.00,,OVC,0.00,VWS V14.01,2013-01-29 15:15:00,
2013-01-29 10:20:00,34.3,13.1,30.15,NW,315,2.9,2.9,41,0.00,,OVC,0.00,VWS V14.01,2013-01-29 15:20:00,
2013-01-29 10:25:00,34.7,13.4,30.12,NW,315,2.9,2.9,41,0.00,,OVC,0.00,VWS V14.01,2013-01-29 15:25:00,
2013-01-29 10:30:00,34.2,12.4,30.12,NNW,338,3.6,3.6,40,0.00,,OVC,0.00,VWS V14.01,2013-01-29 15:30:00,
2013-01-29 10:35:00,34.2,12.4,30.12,NNW,338,3.6,3.6,40,0.00,,OVC,0.00,VWS V14.01,2013-01-29 15:35:00,
2013-01-29 10:40:00,34.2,12.4,30.12,NNW,338,3.4,3.6,40,0.00,,OVC,0.00,VWS V14.01,2013-01-29 15:40:00,
2013-01-29 10:45:00,35.1,13.8,30.12,NNW,338,2.7,3.8,41,0.00,,OVC,0.00,VWS V14.01,2013-01-29 15:45:00,
2013-01-29 10:50:00,35.1,13.8,30.15,NNW,338,2.7,2.7,41,0.00,,OVC,0.00,VWS V14.01,2013-01-29 15:50:00,
2013-01-29 10:55:00,37.0,15.5,30.15,NNW,338,2.5,2.5,41,0.00,,OVC,0.00,VWS V14.01,2013-01-29 15:55:00,
2013-01-29 11:00:00,37.4,15.3,30.15,NNW,338,2.2,2.2,40,0.00,,OVC,0.00,VWS V14.01,2013-01-29 16:00:00,
2013-01-29 11:05:00,37.4,15.3,30.12,NNW,338,2.2,2.2,40,0.00,,OVC,0.00,VWS V14.01,2013-01-29 16:05:00,
2013-01-29 11:10:00,37.4,15.3,30.12,NNW,338,2.2,2.2,40,0.00,,OVC,0.00,VWS V14.01,2013-01-29 16:10:00,
2013-01-29 11:15:00,37.4,15.3,30.12,NNW,338,2.2,2.2,40,0.00,,OVC,0.00,VWS V14.01,2013-01-29 16:15:00,
2013-01-29 11:20:00,37.4,15.3,30.15,NNW,338,2.2,2.2,40,0.00,,OVC,0.00,VWS V14.01,2013-01-29 16:20:00,
2013-01-29 11:25:00,37.4,15.3,30.15,NNW,338,2.2,2.2,40,0.00,,OVC,0.00,VWS V14.01,2013-01-29 16:25:00,
2013-01-29 11:30:00,37.4,15.3,30.15,NNW,338,2.2,2.2,40,0.00,,OVC,0.00,VWS V14.01,2013-01-29 16:30:00,
2013-01-29 11:35:00,37.4,15.3,30.15,NNW,338,2.2,2.2,40,0.00,,OVC,0.00,VWS V14.01,2013-01-29 16:35:00,
2013-01-29 11:40:00,37.4,15.3,30.15,NNW,338,2.2,2.2,40,0.00,,OVC,0.00,VWS V14.01,2013-01-29 16:40:00,
2013-01-29 11:45:00,43.3,15.5,30.15,NNW,338,2.2,2.2,32,0.00,,OVC,0.00,VWS V14.01,2013-01-29 16:45:00,
2013-01-29 11:50:00,41.2,14.3,30.15,NNW,338,2.2,2.2,33,0.00,,OVC,0.00,VWS V14.01,2013-01-29 16:50:00,
2013-01-29 11:55:00,41.2,14.3,30.15,NNW,338,2.2,2.2,33,0.00,,OVC,0.00,VWS V14.01,2013-01-29 16:55:00,
2013-01-29 12:00:00,41.2,13.6,30.15,NNW,338,2.2,2.2,32,0.00,,OVC,0.00,VWS V14.01,2013-01-29 17:00:00,
2013-01-29 12:05:00,40.6,13.1,30.15,NNW,338,2.2,2.2,32,0.00,,OVC,0.00,VWS V14.01,2013-01-29 17:05:00,
2013-01-29 12:10:00,39.6,12.1,30.15,NNW,338,2.2,2.2,32,0.00,,OVC,0.00,VWS V14.01,2013-01-29 17:10:00,
2013-01-29 12:15:00,39.6,12.1,30.15,NNW,338,2.2,2.2,32,0.00,,OVC,0.00,VWS V14.01,2013-01-29 17:15:00,
2013-01-29 12:20:00,39.7,12.3,30.15,NNW,338,2.2,2.2,32,0.00,,OVC,0.00,VWS V14.01,2013-01-29 17:20:00,
2013-01-29 12:25:00,39.6,12.1,30.15,NNW,338,2.2,2.2,32,0.00,,OVC,0.00,VWS V14.01,2013-01-29 17:25:00,
2013-01-29 12:30:00,39.6,12.1,30.15,NNW,338,2.2,2.2,32,0.00,,OVC,0.00,VWS V14.01,2013-01-29 17:30:00,
2013-01-29 12:35:00,39.9,13.2,30.15,NNW,338,2.2,2.2,33,0.00,,OVC,0.00,VWS V14.01,2013-01-29 17:35:00,
2013-01-29 12:40:00,38.8,12.2,30.15,NNW,338,3.6,3.6,33,0.00,,OVC,0.00,VWS V14.01,2013-01-29 17:40:00,
2013-01-29 12:45:00,38.7,12.1,30.15,NNW,338,3.6,3.6,33,0.00,,OVC,0.00,VWS V14.01,2013-01-29 17:45:00,
2013-01-29 12:50:00,39.4,13.4,30.12,NNW,338,3.6,3.6,34,0.00,,OVC,0.00,VWS V14.01,2013-01-29 17:50:00,
2013-01-29 12:55:00,39.4,12.7,30.12,NNW,338,3.6,3.6,33,0.00,,OVC,0.00,VWS V14.01,2013-01-29 17:55:00,
2013-01-29 13:00:00,37.9,12.1,30.12,NNW,338,3.6,3.6,34,0.00,,OVC,0.00,VWS V14.01,2013-01-29 18:00:00,
2013-01-29 13:05:00,37.8,11.9,30.12,NNW,338,3.6,3.6,34,0.00,,OVC,0.00,VWS V14.01,2013-01-29 18:05:00,
2013-01-29 13:10:00,38.1,12.9,30.12,WNW,292,3.6,3.6,35,0.00,,OVC,0.00,VWS V14.01,2013-01-29 18:10:00,
2013-01-29 13:15:00,38.1,12.9,30.12,WNW,292,3.6,3.6,35,0.00,,OVC,0.00,VWS V14.01,2013-01-29 18:15:00,
2013-01-29 13:20:00,38.1,12.9,30.12,WNW,292,3.6,3.6,35,0.00,,OVC,0.00,VWS V14.01,2013-01-29 18:20:00,
2013-01-29 13:25:00,38.1,12.9,30.12,WNW,292,3.6,3.6,35,0.00,,OVC,0.00,VWS V14.01,2013-01-29 18:25:00,
2013-01-29 13:30:00,38.1,12.9,30.12,WNW,292,3.6,3.6,35,0.00,,OVC,0.00,VWS V14.01,2013-01-29 18:30:00,
2013-01-29 13:35:00,38.1,12.9,30.12,WNW,292,3.6,3.6,35,0.00,,OVC,0.00,VWS V14.01,2013-01-29 18:35:00,
2013-01-29 13:41:00,38.1,12.9,30.12,WNW,292,3.6,3.6,35,0.00,,OVC,0.00,VWS V14.01,2013-01-29 18:41:00,
2013-01-29 13:46:00,38.1,12.9,30.12,WNW,292,3.6,3.6,35,0.00,,OVC,0.00,VWS V14.01,2013-01-29 18:46:00,
2013-01-29 13:51:00,38.1,12.9,30.12,WNW,292,3.6,3.6,35,0.00,,OVC,0.00,VWS V14.01,2013-01-29 18:51:00,
2013-01-29 13:56:00,38.1,12.9,30.12,WNW,292,3.6,3.6,35,0.00,,OVC,0.00,VWS V14.01,2013-01-29 18:56:00,
2013-01-29 14:00:00,38.1,12.9,30.12,WNW,292,3.6,3.6,35,0.00,,OVC,0.00,VWS V14.01,2013-01-29 19:00:00,
2013-01-29 14:01:00,38.1,12.9,30.12,WNW,292,3.6,3.6,35,0.00,,OVC,0.00,VWS V14.01,2013-01-29 19:01:00,
2013-01-29 14:06:00,38.1,12.9,30.15,WNW,292,3.6,3.6,35,0.00,,OVC,0.00,VWS V14.01,2013-01-29 19:06:00,
2013-01-29 14:11:00,38.1,12.9,30.15,WNW,292,3.6,3.6,35,0.00,,OVC,0.00,VWS V14.01,2013-01-29 19:11:00,
2013-01-29 14:16:00,38.1,12.9,30.15,WNW,292,3.6,3.6,35,0.00,,OVC,0.00,VWS V14.01,2013-01-29 19:16:00,
2013-01-29 14:21:00,38.1,12.9,30.15,WNW,292,3.6,3.6,35,0.00,,OVC,0.00,VWS V14.01,2013-01-29 19:21:00,
2013-01-29 14:26:00,38.1,12.9,30.15,WNW,292,3.6,3.6,35,0.00,,OVC,0.00,VWS V14.01,2013-01-29 19:26:00,
2013-01-29 14:30:00,38.1,12.9,30.15,WNW,292,3.6,3.6,35,0.00,,OVC,0.00,VWS V14.01,2013-01-29 19:30:00,
2013-01-29 14:31:00,38.1,12.9,30.15,WNW,292,3.6,3.6,35,0.00,,OVC,0.00,VWS V14.01,2013-01-29 19:31:00,
2013-01-29 14:36:00,38.1,12.9,30.12,WNW,292,3.6,3.6,35,0.00,,OVC,0.00,VWS V14.01,2013-01-29 19:36:00,
2013-01-29 14:41:00,38.1,12.9,30.12,WNW,292,3.6,3.6,35,0.00,,OVC,0.00,VWS V14.01,2013-01-29 19:41:00,
2013-01-29 14:46:00,38.1,12.9,30.12,WNW,292,3.6,3.6,35,0.00,,OVC,0.00,VWS V14.01,2013-01-29 19:46:00,
2013-01-29 14:51:00,38.1,12.9,30.15,WNW,292,3.6,3.6,35,0.00,,OVC,0.00,VWS V14.01,2013-01-29 19:51:00,
2013-01-29 14:56:00,38.1,12.9,30.15,WNW,292,3.6,3.6,35,0.00,,OVC,0.00,VWS V14.01,2013-01-29 19:56:00,
2013-01-29 14:58:00,38.1,12.9,30.15,WNW,292,3.6,3.6,35,0.00,,OVC,0.00,VWS V14.01,2013-01-29 19:58:00,
2013-01-29 15:00:00,38.1,12.9,30.15,WNW,292,3.6,3.6,35,0.00,,OVC,0.00,VWS V14.01,2013-01-29 20:00:00,
2013-01-29 15:03:00,38.1,12.9,30.15,WNW,292,3.6,3.6,35,0.00,,OVC,0.00,VWS V14.01,2013-01-29 20:03:00,
2013-01-29 15:08:00,38.1,12.9,30.12,WNW,292,3.6,3.6,35,0.00,,OVC,0.00,VWS V14.01,2013-01-29 20:08:00,
2013-01-29 15:13:00,38.1,12.9,30.12,WNW,292,3.6,3.6,35,0.00,,OVC,0.00,VWS V14.01,2013-01-29 20:13:00,
2013-01-29 15:18:00,38.1,12.9,30.12,WNW,292,3.6,3.6,35,0.00,,OVC,0.00,VWS V14.01,2013-01-29 20:18:00,
2013-01-29 15:23:00,38.1,12.9,30.12,WNW,292,3.6,3.6,35,0.00,,OVC,0.00,VWS V14.01,2013-01-29 20:23:00,
2013-01-29 15:28:00,38.1,12.9,30.12,WNW,292,3.6,3.6,35,0.00,,OVC,0.00,VWS V14.01,2013-01-29 20:28:00,
2013-01-29 15:30:00,38.1,12.9,30.12,WNW,292,3.6,3.6,35,0.00,,OVC,0.00,VWS V14.01,2013-01-29 20:30:00,
2013-01-29 15:33:00,38.1,12.9,30.12,WNW,292,3.6,3.6,35,0.00,,OVC,0.00,VWS V14.01,2013-01-29 20:33:00,
2013-01-29 15:38:00,38.1,12.9,30.12,WNW,292,3.6,3.6,35,0.00,,OVC,0.00,VWS V14.01,2013-01-29 20:38:00,
2013-01-29 15:43:00,38.1,12.9,30.12,WNW,292,3.6,3.6,35,0.00,,OVC,0.00,VWS V14.01,2013-01-29 20:43:00,
2013-01-29 15:49:00,38.1,12.9,30.12,WNW,292,3.6,3.6,35,0.00,,OVC,0.00,VWS V14.01,2013-01-29 20:49:00,
2013-01-29 15:54:00,38.1,12.9,30.12,WNW,292,3.6,3.6,35,0.00,,OVC,0.00,VWS V14.01,2013-01-29 20:54:00,
2013-01-29 15:59:00,38.1,12.9,30.12,WNW,292,3.6,3.6,35,0.00,,OVC,0.00,VWS V14.01,2013-01-29 20:59:00,
2013-01-29 16:00:00,38.1,12.9,30.12,WNW,292,3.6,3.6,35,0.00,,OVC,0.00,VWS V14.01,2013-01-29 21:00:00,
2013-01-29 16:04:00,38.1,12.9,30.12,WNW,292,3.6,3.6,35,0.00,,OVC,0.00,VWS V14.01,2013-01-29 21:04:00,
2013-01-29 16:06:00,38.1,12.9,30.15,WNW,292,3.6,3.6,35,0.00,,OVC,0.00,VWS V14.01,2013-01-29 21:06:00,
2013-01-29 16:09:00,38.1,12.9,30.15,WNW,292,3.6,3.6,35,0.00,,OVC,0.00,VWS V14.01,2013-01-29 21:09:00,
2013-01-29 16:15:00,38.1,12.9,30.15,WNW,292,3.6,3.6,35,0.00,,OVC,0.00,VWS V14.01,2013-01-29 21:15:00,
2013-01-29 16:19:00,38.1,12.9,30.15,WNW,292,3.6,3.6,35,0.00,,OVC,0.00,VWS V14.01,2013-01-29 21:19:00,
2013-01-29 16:30:00,29.5,11.3,30.15,WNW,292,3.6,3.6,46,0.00,,,0.00,VWS V14.01,2013-01-29 21:30:00,
2013-01-29 16:49:00,38.1,12.9,30.15,WNW,292,3.6,3.6,35,0.00,,OVC,0.00,VWS V14.01,2013-01-29 21:49:00,
2013-01-29 16:54:00,38.1,12.9,30.12,WNW,292,3.6,3.6,35,0.00,,OVC,0.00,VWS V14.01,2013-01-29 21:54:00,
2013-01-29 16:59:00,38.1,12.9,30.12,WNW,292,3.6,3.6,35,0.00,,OVC,0.00,VWS V14.01,2013-01-29 21:59:00,
2013-01-29 17:00:00,38.1,12.9,30.12,WNW,292,3.6,3.6,35,0.00,,OVC,0.00,VWS V14.01,2013-01-29 22:00:00,
2013-01-29 17:04:00,38.1,12.9,30.12,WNW,292,3.6,3.6,35,0.00,,OVC,0.00,VWS V14.01,2013-01-29 22:04:00,
2013-01-29 17:09:00,38.1,12.9,30.12,WNW,292,3.6,3.6,35,0.00,,OVC,0.00,VWS V14.01,2013-01-29 22:09:00,
2013-01-29 17:14:00,38.1,12.9,30.12,WNW,292,3.6,3.6,35,0.00,,OVC,0.00,VWS V14.01,2013-01-29 22:14:00,
2013-01-29 17:19:00,29.8,10.6,30.12,WNW,292,3.6,3.6,44,0.00,,OVC,0.00,VWS V14.01,2013-01-29 22:19:00,
2013-01-29 17:24:00,29.8,10.6,30.15,WNW,292,3.6,3.6,44,0.00,,OVC,0.00,VWS V14.01,2013-01-29 22:24:00,
2013-01-29 17:29:00,29.5,11.3,30.15,WNW,292,3.6,3.6,46,0.00,,OVC,0.00,VWS V14.01,2013-01-29 22:29:00,
2013-01-29 17:30:00,29.5,11.3,30.15,WNW,292,3.6,3.6,46,0.00,,OVC,0.00,VWS V14.01,2013-01-29 22:30:00,
2013-01-29 17:34:00,29.3,11.1,30.15,WNW,292,3.6,3.6,46,0.00,,OVC,0.00,VWS V14.01,2013-01-29 22:34:00,
2013-01-29 17:39:00,28.9,10.8,30.15,WNW,292,3.6,3.6,46,0.00,,OVC,0.00,VWS V14.01,2013-01-29 22:39:00,
2013-01-29 17:44:00,28.8,12.0,30.15,WNW,292,3.6,3.6,49,0.00,,OVC,0.00,VWS V14.01,2013-01-29 22:44:00,
2013-01-29 17:49:00,28.8,12.0,30.15,WNW,292,3.6,3.6,49,0.00,,OVC,0.00,VWS V14.01,2013-01-29 22:49:00,
2013-01-29 17:54:00,28.6,11.4,30.15,WNW,292,3.6,3.6,48,0.00,,OVC,0.00,VWS V14.01,2013-01-29 22:54:00,
2013-01-29 17:59:00,28.6,11.4,30.15,WNW,292,3.6,3.6,48,0.00,,OVC,0.00,VWS V14.01,2013-01-29 22:59:00,
2013-01-29 18:00:00,28.6,11.4,30.15,WNW,292,3.6,3.6,48,0.00,,OVC,0.00,VWS V14.01,2013-01-29 23:00:00,
2013-01-29 18:04:00,28.0,11.4,30.15,WNW,292,3.6,3.6,49,0.00,,OVC,0.00,VWS V14.01,2013-01-29 23:04:00,
2013-01-29 18:09:00,27.9,12.1,30.15,WNW,292,3.6,3.6,51,0.00,,OVC,0.00,VWS V14.01,2013-01-29 23:09:00,
2013-01-29 18:14:00,27.5,11.8,30.15,WNW,292,3.6,3.6,51,0.00,,OVC,0.00,VWS V14.01,2013-01-29 23:14:00,
2013-01-29 18:19:00,27.3,11.1,30.15,WNW,292,3.6,3.6,50,0.00,,OVC,0.00,VWS V14.01,2013-01-29 23:19:00,
2013-01-29 18:24:00,27.0,11.3,30.12,WNW,292,3.6,3.6,51,0.00,,OVC,0.00,VWS V14.01,2013-01-29 23:24:00,
2013-01-29 18:29:00,26.8,11.1,30.12,WNW,292,3.6,3.6,51,0.00,,OVC,0.00,VWS V14.01,2013-01-29 23:29:00,
2013-01-29 18:30:00,26.8,11.1,30.12,WNW,292,3.6,3.6,51,0.00,,OVC,0.00,VWS V14.01,2013-01-29 23:30:00,
2013-01-29 18:34:00,26.6,11.4,30.12,WNW,292,3.6,3.6,52,0.00,,OVC,0.00,VWS V14.01,2013-01-29 23:34:00,
2013-01-29 18:40:00,26.6,11.4,30.15,WNW,292,3.6,3.6,52,0.00,,OVC,0.00,VWS V14.01,2013-01-29 23:40:00,
2013-01-29 18:45:00,26.4,11.2,30.15,WNW,292,3.6,3.6,52,0.00,,OVC,0.00,VWS V14.01,2013-01-29 23:45:00,
2013-01-29 18:50:00,26.2,11.4,30.15,WNW,292,3.6,3.6,53,0.00,,OVC,0.00,VWS V14.01,2013-01-29 23:50:00,
2013-01-29 18:55:00,26.2,11.4,30.15,WNW,292,3.6,3.6,53,0.00,,OVC,0.00,VWS V14.01,2013-01-29 23:55:00,
2013-01-29 19:00:00,26.2,11.4,30.15,WNW,292,3.6,3.6,53,0.00,,OVC,0.00,VWS V14.01,2013-01-30 00:00:00,
2013-01-29 19:05:00,26.2,11.4,30.15,WNW,292,3.6,3.6,53,0.00,,OVC,0.00,VWS V14.01,2013-01-30 00:05:00,
2013-01-29 19:10:00,26.4,11.6,30.15,WNW,292,3.6,3.6,53,0.00,,OVC,0.00,VWS V14.01,2013-01-30 00:10:00,
2013-01-29 19:15:00,26.8,12.0,30.15,WNW,292,3.6,3.6,53,0.00,,OVC,0.00,VWS V14.01,2013-01-30 00:15:00,
2013-01-29 19:20:00,26.8,12.0,30.15,WNW,292,3.6,3.6,53,0.00,,OVC,0.00,VWS V14.01,2013-01-30 00:20:00,
2013-01-29 19:25:00,27.1,12.7,30.15,WNW,292,3.6,3.6,54,0.00,,OVC,0.00,VWS V14.01,2013-01-30 00:25:00,
2013-01-29 19:30:00,27.3,12.9,30.15,WNW,292,3.6,3.6,54,0.00,,OVC,0.00,VWS V14.01,2013-01-30 00:30:00,
2013-01-29 19:35:00,27.5,13.1,30.15,WNW,292,3.6,3.6,54,0.00,,OVC,0.00,VWS V14.01,2013-01-30 00:35:00,
2013-01-29 19:40:00,27.9,13.8,30.15,WNW,292,3.6,3.6,55,0.00,,OVC,0.00,VWS V14.01,2013-01-30 00:40:00,
2013-01-29 19:45:00,27.9,13.8,30.15,WNW,292,3.6,3.6,55,0.00,,OVC,0.00,VWS V14.01,2013-01-30 00:45:00,
2013-01-29 19:50:00,27.9,13.4,30.18,WNW,292,3.6,3.6,54,0.00,,OVC,0.00,VWS V14.01,2013-01-30 00:50:00,
2013-01-29 19:55:00,28.0,14.0,30.18,WNW,292,3.6,3.6,55,0.00,,OVC,0.00,VWS V14.01,2013-01-30 00:55:00,
2013-01-29 20:00:00,28.0,14.0,30.18,WNW,292,3.6,3.6,55,0.00,,OVC,0.00,VWS V14.01,2013-01-30 01:00:00,
2013-01-29 20:05:00,28.4,14.3,30.18,WNW,292,3.6,3.6,55,0.00,,OVC,0.00,VWS V14.01,2013-01-30 01:05:00,
2013-01-29 20:10:00,28.4,14.3,30.18,WNW,292,3.6,3.6,55,0.00,,OVC,0.00,VWS V14.01,2013-01-30 01:10:00,
2013-01-29 20:15:00,28.6,14.5,30.18,WNW,292,3.6,3.6,55,0.00,,OVC,0.00,VWS V14.01,2013-01-30 01:15:00,
2013-01-29 20:20:00,28.6,14.1,30.18,WNW,292,3.6,3.6,54,0.00,,OVC,0.00,VWS V14.01,2013-01-30 01:20:00,
2013-01-29 20:25:00,28.6,14.1,30.18,WNW,292,3.6,3.6,54,0.00,,OVC,0.00,VWS V14.01,2013-01-30 01:25:00,
2013-01-29 20:30:00,28.6,14.5,30.18,WNW,292,3.6,3.6,55,0.00,,OVC,0.00,VWS V14.01,2013-01-30 01:30:00,
2013-01-29 20:35:00,28.8,14.6,30.15,WNW,292,3.6,3.6,55,0.00,,OVC,0.00,VWS V14.01,2013-01-30 01:35:00,
2013-01-29 20:40:00,28.8,14.6,30.15,WNW,292,3.6,3.6,55,0.00,,OVC,0.00,VWS V14.01,2013-01-30 01:40:00,
2013-01-29 20:45:00,28.8,14.6,30.15,WNW,292,3.6,3.6,55,0.00,,OVC,0.00,VWS V14.01,2013-01-30 01:45:00,
2013-01-29 20:50:00,28.8,14.6,30.18,WNW,292,3.6,3.6,55,0.00,,OVC,0.00,VWS V14.01,2013-01-30 01:50:00,
2013-01-29 20:55:00,28.9,14.8,30.18,WNW,292,3.6,3.6,55,0.00,,OVC,0.00,VWS V14.01,2013-01-30 01:55:00,
2013-01-29 21:00:00,28.9,15.2,30.18,WNW,292,3.6,3.6,56,0.00,,OVC,0.00,VWS V14.01,2013-01-30 02:00:00,
2013-01-29 21:05:00,29.1,15.8,30.15,WNW,292,3.6,3.6,57,0.00,,OVC,0.00,VWS V14.01,2013-01-30 02:05:00,
2013-01-29 21:10:00,29.3,16.0,30.15,WNW,292,3.6,3.6,57,0.00,,OVC,0.00,VWS V14.01,2013-01-30 02:10:00,
2013-01-29 21:15:00,29.5,16.1,30.15,WNW,292,3.6,3.6,57,0.00,,OVC,0.00,VWS V14.01,2013-01-30 02:15:00,
2013-01-29 21:20:00,29.5,16.1,30.15,WNW,292,3.6,3.6,57,0.00,,OVC,0.00,VWS V14.01,2013-01-30 02:20:00,
2013-01-29 21:25:00,29.7,16.3,30.15,WNW,292,3.6,3.6,57,0.00,,OVC,0.00,VWS V14.01,2013-01-30 02:25:00,
2013-01-29 21:30:00,29.5,16.1,30.15,WNW,292,3.6,3.6,57,0.00,,OVC,0.00,VWS V14.01,2013-01-30 02:30:00,
2013-01-29 21:35:00,29.5,16.5,30.15,WNW,292,3.6,3.6,58,0.00,,OVC,0.00,VWS V14.01,2013-01-30 02:35:00,
2013-01-29 21:40:00,29.5,16.5,30.15,WNW,292,3.6,3.6,58,0.00,,OVC,0.00,VWS V14.01,2013-01-30 02:40:00,
2013-01-29 21:45:00,29.5,16.5,30.15,WNW,292,3.6,3.6,58,0.00,,OVC,0.00,VWS V14.01,2013-01-30 02:45:00,
2013-01-29 21:50:00,29.7,17.1,30.15,WNW,292,3.6,3.6,59,0.00,,OVC,0.00,VWS V14.01,2013-01-30 02:50:00,
2013-01-29 21:55:00,29.7,17.1,30.15,WNW,292,3.6,3.6,59,0.00,,OVC,0.00,VWS V14.01,2013-01-30 02:55:00,
2013-01-29 22:00:00,29.8,17.3,30.15,WNW,292,3.6,3.6,59,0.00,,OVC,0.00,VWS V14.01,2013-01-30 03:00:00,
2013-01-29 22:01:00,29.8,17.3,30.15,WNW,292,3.6,3.6,59,0.00,,OVC,0.00,VWS V14.01,2013-01-30 03:01:00,
2013-01-29 22:06:00,30.0,17.8,30.15,WNW,292,3.6,3.6,60,0.00,,OVC,0.00,VWS V14.01,2013-01-30 03:06:00,
2013-01-29 22:11:00,30.2,18.4,30.15,WNW,292,3.6,3.6,61,0.00,,OVC,0.00,VWS V14.01,2013-01-30 03:11:00,
2013-01-29 22:16:00,30.4,18.9,30.15,WNW,292,3.6,3.6,62,0.00,,OVC,0.00,VWS V14.01,2013-01-30 03:16:00,
2013-01-29 22:21:00,30.6,19.1,30.15,WNW,292,3.6,3.6,62,0.00,,OVC,0.00,VWS V14.01,2013-01-30 03:21:00,
2013-01-29 22:26:00,30.7,19.3,30.15,WNW,292,3.6,3.6,62,0.00,,OVC,0.00,VWS V14.01,2013-01-30 03:26:00,
2013-01-29 22:30:00,30.9,19.8,30.15,WNW,292,3.6,3.6,63,0.00,,OVC,0.00,VWS V14.01,2013-01-30 03:30:00,
2013-01-29 22:31:00,30.9,19.8,30.15,WNW,292,3.6,3.6,63,0.00,,OVC,0.00,VWS V14.01,2013-01-30 03:31:00,
2013-01-29 22:36:00,31.1,20.0,30.15,WNW,292,3.6,3.6,63,0.00,,OVC,0.00,VWS V14.01,2013-01-30 03:36:00,
2013-01-29 22:41:00,31.1,20.4,30.15,WNW,292,3.6,3.6,64,0.00,,OVC,0.00,VWS V14.01,2013-01-30 03:41:00,
2013-01-29 22:46:00,31.1,20.7,30.15,WNW,292,3.6,3.6,65,0.00,,OVC,0.00,VWS V14.01,2013-01-30 03:46:00,
2013-01-29 22:51:00,31.3,20.9,30.15,WNW,292,3.6,3.6,65,0.00,,OVC,0.00,VWS V14.01,2013-01-30 03:51:00,
2013-01-29 22:56:00,31.3,20.9,30.15,WNW,292,3.6,3.6,65,0.00,,OVC,0.00,VWS V14.01,2013-01-30 03:56:00,
2013-01-29 23:00:00,31.6,21.2,30.15,WNW,292,3.6,3.6,65,0.00,,OVC,0.00,VWS V14.01,2013-01-30 04:00:00,
2013-01-29 23:01:00,31.6,21.2,30.15,WNW,292,3.6,3.6,65,0.00,,OVC,0.00,VWS V14.01,2013-01-30 04:01:00,
2013-01-29 23:06:00,31.8,21.4,30.15,WNW,292,3.6,3.6,65,0.00,,OVC,0.00,VWS V14.01,2013-01-30 04:06:00,
2013-01-29 23:11:00,31.8,21.0,30.15,WNW,292,3.6,3.6,64,0.00,,OVC,0.00,VWS V14.01,2013-01-30 04:11:00,
2013-01-29 23:16:00,32.0,21.2,30.15,WNW,292,3.6,3.6,64,0.00,,OVC,0.00,VWS V14.01,2013-01-30 04:16:00,
2013-01-29 23:21:00,32.2,21.4,30.12,WNW,292,3.6,3.6,64,0.00,,OVC,0.00,VWS V14.01,2013-01-30 04:21:00,
2013-01-29 23:26:00,32.2,21.4,30.12,WNW,292,3.6,3.6,64,0.00,,OVC,0.00,VWS V14.01,2013-01-30 04:26:00,
2013-01-29 23:30:00,32.2,21.0,30.12,WNW,292,3.6,3.6,63,0.00,,OVC,0.00,VWS V14.01,2013-01-30 04:30:00,
2013-01-29 23:31:00,32.2,21.4,30.12,WNW,292,3.6,3.6,64,0.00,,OVC,0.00,VWS V14.01,2013-01-30 04:31:00,
2013-01-29 23:36:00,32.5,21.7,30.15,WNW,292,3.6,3.6,64,0.00,,OVC,0.00,VWS V14.01,2013-01-30 04:36:00,
2013-01-29 23:41:00,32.5,21.7,30.15,WNW,292,3.6,3.6,64,0.00,,OVC,0.00,VWS V14.01,2013-01-30 04:41:00,
2013-01-29 23:46:00,32.5,21.4,30.15,WNW,292,3.6,3.6,63,0.00,,OVC,0.00,VWS V14.01,2013-01-30 04:46:00,
2013-01-29 23:51:00,32.5,21.7,30.12,WNW,292,3.6,3.6,64,0.00,,OVC,0.00,VWS V14.01,2013-01-30 04:51:00,
2013-01-29 23:56:00,32.5,21.4,30.12,WNW,292,3.6,3.6,63,0.00,,OVC,0.00,VWS V14.01,2013-01-30 04:56:00,